Terminal Aerodrome Forecast
Issued by NWS

Home | Current Version | Previous Version | Text Only | Print | Product List | Glossary Off
Versions: 1 2 3 4 5 6 7 8 9 10 11 12 13 14 15 16 17 18 19

383
FTUS43 KFGF 060532
TAFBJI
TAF
KBJI 060532Z 0606/0706 23008KT 5SM BR OVC003
     FM061000 17006KT 5SM BR SCT003 BKN250
     FM061400 18008KT P6SM BKN080
     FM062300 20013G20KT P6SM BKN080=

USA.gov is the U.S. government's official web portal to all federal, state and local government web resources and services.